• Join FlightAware (Why Join?)
  • Login
  • US Flag 
02:00AM EDT


 

Airport Tracker/Info


-or-


 

Live Flight TrackerFlight Track Log ✈ BVN8515 ✈ 19-Jun-2013 ✈ KATL - KCSG

Flight Track Log - Related Links

Times and Time Zones

All times are in EDT time to prevent confusion due to time zone crossing. See the BVN8515 flight status page for this flight to view local times or setup timezone preferences in your user account.

Time Position Orientation Groundspeed Altitude Reporting Facility
EDT Latitude Longitude Course Direction KTS MPH feet Rate Location/Type
06:27AM 33.6000 -84.4500 180° South 109 125 2,900  Level Atlanta TRACON
06:28AM 33.5667 -84.4667 203° Southwest 117 135 3,600 660 Climbing Atlanta TRACON
06:30AM 33.5000 -84.4833 192° South 114 131 5,000 660 Climbing Atlanta TRACON
06:31AM 33.4667 -84.4833 180° South 115 132 5,700 420 Climbing Atlanta TRACON
06:32AM 33.3576 -84.4167 180° South  Level FlightAware Approximate
06:32AM 33.4333 -84.5000 203° Southwest 131 151 5,900  Level Atlanta TRACON
06:33AM 33.4000 -84.5167 203° Southwest 147 169 6,000  Climbing Atlanta TRACON
06:34AM 33.3500 -84.5333 196° South 154 177 6,000  Level Atlanta TRACON
06:35AM 33.3167 -84.5500 203° Southwest 153 176 6,000  Level Atlanta TRACON
06:36AM 33.2833 -84.5667 203° Southwest 155 178 6,000  Level Atlanta TRACON
06:37AM 33.2500 -84.5833 203° Southwest 153 176 6,000  Level Atlanta TRACON
06:38AM 33.2167 -84.6000 203° Southwest 155 178 6,000  Level Atlanta TRACON
06:39AM 33.1833 -84.6167 203° Southwest 154 177 6,000  Level Atlanta TRACON
06:40AM 33.1333 -84.6333 196° South 157 181 6,000  Level Atlanta TRACON
06:41AM 33.0833 -84.6500 196° South 157 181 6,000  Level Atlanta TRACON
06:42AM 33.0333 -84.6500 180° South 158 182 6,000  Level Atlanta TRACON
06:43AM 33.0000 -84.6667 203° Southwest 155 178 6,000  Level Atlanta TRACON
06:44AM 32.9667 -84.6667 180° South 159 183 6,000  Level Atlanta TRACON
06:45AM 32.9167 -84.6833 196° South 157 181 6,000 -180 Level Atlanta TRACON
06:46AM 32.8833 -84.6833 180° South 160 184 5,700 -600 Descending Atlanta TRACON
06:47AM 32.8333 -84.7000 196° South 174 200 5,000 -720 Descending Atlanta TRACON
06:48AM 32.7833 -84.7000 180° South 169 194 4,300 -600 Descending Atlanta TRACON
06:49AM 32.7500 -84.7167 203° Southwest 154 177 3,900 -420 Descending Atlanta TRACON
06:50AM 32.7000 -84.7167 180° South 142 163 3,600 -480 Descending Atlanta TRACON
06:50AM 32.6667 -84.7333 203° Southwest 159 183 3,000 -420 Descending Atlanta TRACON
06:51AM 32.6333 -84.7500 203° Southwest 148 170 2,900 -60 Descending Atlanta TRACON
06:52AM 32.6167 -84.7833 239° Southwest 134 154 2,900 -180 Level Atlanta TRACON
06:53AM 32.6000 -84.8167 239° Southwest 132 152 2,600 -600 Descending Atlanta TRACON
06:54AM 32.5667 -84.8500 220° Southwest 133 153 1,800 -780 Descending Atlanta TRACON
06:55AM 32.5500 -84.8833 239° Southwest 131 151 1,200 -720 Descending Atlanta TRACON
06:56AM 32.5333 -84.9167 239° Southwest 131 151 600 -720 Descending Atlanta TRACON
06:58AM 32.5163 -84.9389 220° Southwest  Level Estimated
07:05AM 32.5163 -84.9389 220° Southwest  Level Estimated